createdAt,value
2022-11-04T00:02:08.459Z,14.98
2022-11-04T00:04:36.428Z,16.38
2022-11-04T00:07:23.144Z,11.65
2022-11-04T00:09:49.916Z,13.98
2022-11-04T00:12:25.645Z,14.90
2022-11-04T00:14:52.476Z,15.40
2022-11-04T00:17:19.448Z,17.77
2022-11-04T00:20:06.459Z,12.55
2022-11-04T00:22:51.828Z,15.38
2022-11-04T00:25:37.598Z,17.55
2022-11-04T00:28:41.503Z,15.63
2022-11-04T00:31:28.030Z,12.57
2022-11-04T00:33:57.283Z,15.43
2022-11-04T00:36:25.705Z,14.57
2022-11-04T00:38:53.394Z,15.85
2022-11-04T00:41:27.174Z,14.35
2022-11-04T00:43:59.102Z,13.02
2022-11-04T00:46:27.266Z,12.18
2022-11-04T00:48:54.263Z,15.65
2022-11-04T00:51:21.838Z,14.85
2022-11-04T00:53:49.483Z,14.52
2022-11-04T00:56:16.843Z,15.68
2022-11-04T00:58:43.780Z,18.23
2022-11-04T01:01:12.554Z,13.43
2022-11-04T01:03:39.892Z,14.10
2022-11-04T01:06:07.036Z,15.18
2022-11-04T01:08:34.573Z,16.98
2022-11-04T01:11:03.139Z,16.55
2022-11-04T01:13:30.760Z,18.05
2022-11-04T01:16:02.257Z,13.27
2022-11-04T01:18:29.441Z,12.77
2022-11-04T01:21:00.659Z,14.82
2022-11-04T01:23:27.765Z,12.15
2022-11-04T01:25:54.524Z,14.98
2022-11-04T01:28:21.331Z,14.40
2022-11-04T01:30:48.165Z,17.70
2022-11-04T01:33:14.954Z,13.32
2022-11-04T01:35:41.817Z,16.92
2022-11-04T01:38:09.019Z,11.05
2022-11-04T01:40:40.566Z,15.80
2022-11-04T01:43:15.907Z,13.98
2022-11-04T01:45:45.348Z,12.52
2022-11-04T01:48:22.406Z,12.35
2022-11-04T01:50:51.403Z,14.90
2022-11-04T01:53:29.105Z,13.43
2022-11-04T01:55:58.696Z,14.98
2022-11-04T01:58:29.902Z,13.50
2022-11-04T02:00:56.932Z,15.40
2022-11-04T02:03:34.829Z,14.50
2022-11-04T02:06:02.878Z,10.43
2022-11-04T02:08:30.134Z,10.98
2022-11-04T02:11:01.755Z,17.02
2022-11-04T02:13:31.380Z,13.80
2022-11-04T02:16:19.513Z,12.00
2022-11-04T02:19:13.293Z,16.45
2022-11-04T02:21:42.903Z,10.82
2022-11-04T02:24:21.878Z,16.88
2022-11-04T02:27:14.584Z,17.25
2022-11-04T02:30:00.014Z,11.60
2022-11-04T02:32:51.392Z,13.93
2022-11-04T02:35:30.125Z,9.02
2022-11-04T02:38:05.825Z,11.80
2022-11-04T02:41:04.478Z,15.65
2022-11-04T02:43:46.264Z,15.00
2022-11-04T02:46:34.550Z,12.73
2022-11-04T02:49:27.715Z,14.23
2022-11-04T02:52:08.265Z,14.88
2022-11-04T02:55:00.568Z,17.85
2022-11-04T02:57:31.981Z,12.73
2022-11-04T03:00:03.703Z,14.60
2022-11-04T03:02:36.060Z,13.20
2022-11-04T03:05:08.326Z,11.48
2022-11-04T03:07:37.831Z,14.63
2022-11-04T03:10:11.156Z,12.30
2022-11-04T03:12:42.568Z,10.55
2022-11-04T03:15:14.879Z,14.85
2022-11-04T03:17:46.779Z,12.85
2022-11-04T03:20:20.951Z,18.20
2022-11-04T03:22:47.989Z,13.57
2022-11-04T03:25:15.214Z,17.05
2022-11-04T03:28:18.720Z,11.70
2022-11-04T03:30:51.263Z,15.13
2022-11-04T03:33:47.506Z,19.13
2022-11-04T03:36:14.674Z,15.52
2022-11-04T03:38:41.518Z,13.35
2022-11-04T03:41:16.571Z,14.65
2022-11-04T03:43:43.349Z,16.63
2022-11-04T03:46:10.888Z,14.38
2022-11-04T03:48:38.006Z,14.27
2022-11-04T03:51:04.891Z,17.77
2022-11-04T03:53:32.238Z,14.38
2022-11-04T03:56:32.154Z,12.07
2022-11-04T03:59:04.603Z,17.13
2022-11-04T04:01:53.130Z,12.45
2022-11-04T04:04:25.852Z,13.40
2022-11-04T04:06:59.116Z,16.45
2022-11-04T04:09:34.523Z,16.10
2022-11-04T04:12:05.582Z,15.45
2022-11-04T04:14:50.319Z,15.60
2022-11-04T04:17:39.791Z,13.38
2022-11-04T04:20:15.200Z,13.65
2022-11-04T04:22:52.532Z,18.48
2022-11-04T04:25:39.633Z,16.95
2022-11-04T04:28:07.696Z,17.80
2022-11-04T04:30:35.315Z,14.35
2022-11-04T04:33:11.309Z,12.82
2022-11-04T04:35:49.258Z,12.40
2022-11-04T04:38:40.282Z,15.90
2022-11-04T04:41:50.020Z,14.80
2022-11-04T04:44:47.020Z,16.13
2022-11-04T04:47:20.117Z,14.32
2022-11-04T04:50:01.174Z,14.43
2022-11-04T04:52:31.983Z,16.48
2022-11-04T04:54:59.076Z,17.27
2022-11-04T04:57:25.872Z,15.50
2022-11-04T04:59:52.652Z,20.20
2022-11-04T05:02:19.521Z,14.90
2022-11-04T05:04:46.457Z,14.73
2022-11-04T05:07:13.520Z,16.60
2022-11-04T05:09:40.254Z,19.85
2022-11-04T05:12:07.464Z,18.25
2022-11-04T05:14:34.284Z,16.02
2022-11-04T05:17:01.210Z,16.17
2022-11-04T05:19:28.268Z,15.82
2022-11-04T05:21:55.008Z,14.75
2022-11-04T05:24:21.754Z,19.30
2022-11-04T05:26:48.608Z,16.08
2022-11-04T05:31:47.141Z,16.17
2022-11-04T05:34:14.282Z,16.05
2022-11-04T05:36:41.111Z,12.90
2022-11-04T05:39:11.155Z,16.00
2022-11-04T05:41:37.939Z,16.98
2022-11-04T05:44:04.823Z,17.38
2022-11-04T05:46:31.857Z,15.60
2022-11-04T05:48:58.745Z,13.68
2022-11-04T05:51:28.687Z,15.02
2022-11-04T05:53:55.451Z,13.93
2022-11-04T05:56:22.343Z,17.83
2022-11-04T05:58:49.139Z,16.27
2022-11-04T06:01:25.029Z,13.55
2022-11-04T06:06:19.549Z,14.20
2022-11-04T06:08:46.374Z,14.68
2022-11-04T06:11:13.126Z,16.80
2022-11-04T06:13:39.876Z,13.75
2022-11-04T06:16:07.355Z,16.60
2022-11-04T06:18:34.283Z,16.75
2022-11-04T06:21:14.606Z,15.95
2022-11-04T06:23:42.039Z,14.13
2022-11-04T06:26:09.404Z,14.43
2022-11-04T06:28:36.218Z,16.35
2022-11-04T06:31:04.875Z,18.75
2022-11-04T06:33:36.521Z,18.33
2022-11-04T06:36:06.661Z,19.63
2022-11-04T06:38:37.458Z,13.43
2022-11-04T06:43:37.558Z,16.70
2022-11-04T06:46:04.840Z,15.55
2022-11-04T06:48:32.389Z,16.83
2022-11-04T06:51:00.635Z,16.52
2022-11-04T06:53:29.170Z,20.13
2022-11-04T06:56:04.271Z,20.55
2022-11-04T06:58:31.094Z,20.80
2022-11-04T07:00:57.942Z,17.13
2022-11-04T07:03:24.773Z,18.02
2022-11-04T07:05:51.567Z,18.70
2022-11-04T07:08:18.887Z,20.20
2022-11-04T07:10:45.683Z,17.63
2022-11-04T07:13:12.773Z,20.17
2022-11-04T07:15:40.386Z,20.10
2022-11-04T07:18:07.533Z,20.15
2022-11-04T07:20:36.600Z,21.35
2022-11-04T07:23:03.386Z,26.80
2022-11-04T07:25:30.643Z,21.50
2022-11-04T07:28:01.081Z,18.98
2022-11-04T07:30:29.486Z,17.70
2022-11-04T07:32:56.386Z,18.85
2022-11-04T07:35:23.146Z,22.27
2022-11-04T07:37:49.897Z,17.52
2022-11-04T07:40:16.836Z,26.92
2022-11-04T07:42:43.616Z,20.55
2022-11-04T07:45:11.093Z,16.52
2022-11-04T07:47:37.978Z,17.10
2022-11-04T07:50:09.777Z,15.57
2022-11-04T07:52:38.226Z,38.92
2022-11-04T07:55:05.692Z,20.52
2022-11-04T07:57:32.478Z,16.42
2022-11-04T07:59:59.662Z,16.95
2022-11-04T08:02:31.072Z,14.13
2022-11-04T08:05:00.897Z,13.52
2022-11-04T08:07:27.745Z,17.48
2022-11-04T08:09:54.529Z,18.33
2022-11-04T08:12:23.833Z,16.02
2022-11-04T08:14:51.116Z,13.32
2022-11-04T08:17:17.922Z,17.02
2022-11-04T08:19:44.841Z,12.10
2022-11-04T08:22:11.655Z,13.48
2022-11-04T08:24:38.440Z,17.50
2022-11-04T08:27:07.755Z,13.30
2022-11-04T08:29:34.932Z,12.35
2022-11-04T08:32:01.893Z,28.35
2022-11-04T08:34:29.170Z,15.68
2022-11-04T08:36:57.623Z,17.73
2022-11-04T08:39:24.695Z,16.67
2022-11-04T08:41:53.448Z,15.43
2022-11-04T08:44:21.156Z,13.82
2022-11-04T08:46:48.144Z,13.52
2022-11-04T08:49:20.642Z,17.58
2022-11-04T08:51:54.927Z,16.27
2022-11-04T08:54:22.066Z,13.35
2022-11-04T08:56:49.153Z,14.90
2022-11-04T08:59:15.920Z,15.55
2022-11-04T09:01:43.058Z,12.20
2022-11-04T09:04:12.179Z,12.10
2022-11-04T09:06:42.100Z,15.55
2022-11-04T09:09:11.703Z,16.88
2022-11-04T09:11:41.108Z,23.38
2022-11-04T09:14:08.782Z,18.33
2022-11-04T09:16:37.153Z,24.45
2022-11-04T09:19:04.011Z,19.70
2022-11-04T09:21:31.033Z,18.38
2022-11-04T09:23:57.849Z,22.67
2022-11-04T09:26:25.709Z,23.67
2022-11-04T09:28:56.677Z,22.05
2022-11-04T09:31:24.254Z,20.83
2022-11-04T09:33:51.662Z,18.13
2022-11-04T09:36:18.520Z,24.45
2022-11-04T09:38:45.423Z,23.40
2022-11-04T09:41:28.514Z,18.98
2022-11-04T09:44:11.892Z,20.45
2022-11-04T09:46:39.748Z,20.10
2022-11-04T09:49:10.208Z,18.45
2022-11-04T09:51:53.892Z,17.63
2022-11-04T09:54:29.265Z,15.98
2022-11-04T09:56:59.250Z,17.83
2022-11-04T09:59:32.896Z,18.50
2022-11-04T10:02:19.179Z,16.30
2022-11-04T10:04:57.546Z,18.60
2022-11-04T10:07:24.345Z,18.35
2022-11-04T10:10:09.538Z,20.13
2022-11-04T10:13:08.082Z,20.67
2022-11-04T10:16:05.458Z,18.10
2022-11-04T10:19:07.845Z,21.00
2022-11-04T10:21:46.034Z,18.80
2022-11-04T10:24:15.888Z,19.13
2022-11-04T10:27:19.179Z,15.13
2022-11-04T10:30:03.614Z,18.60
2022-11-04T10:32:52.821Z,16.95
2022-11-04T10:35:44.518Z,15.32
2022-11-04T10:38:17.621Z,14.35
2022-11-04T10:40:49.048Z,13.90
2022-11-04T10:43:26.031Z,17.05
2022-11-04T10:46:23.413Z,16.85
2022-11-04T10:49:31.829Z,17.08
2022-11-04T10:51:58.968Z,17.90
2022-11-04T10:54:26.911Z,25.67
2022-11-04T10:56:55.823Z,19.88
2022-11-04T10:59:36.957Z,20.98
2022-11-04T11:02:04.453Z,18.35
2022-11-04T11:04:36.845Z,24.60
2022-11-04T11:07:06.476Z,22.98
2022-11-04T11:09:43.381Z,18.20
2022-11-04T11:12:44.301Z,19.50
2022-11-04T11:14:59.908Z,20.33
2022-11-04T11:17:38.480Z,18.58
2022-11-04T11:20:22.638Z,17.23
2022-11-04T11:22:55.055Z,16.70
2022-11-04T11:25:32.838Z,16.58
2022-11-04T11:28:02.413Z,15.18
2022-11-04T11:30:34.417Z,21.85
2022-11-04T11:33:47.647Z,20.20
2022-11-04T11:36:21.866Z,15.57
2022-11-04T11:39:17.723Z,20.70
2022-11-04T11:42:06.431Z,16.53
2022-11-04T11:44:44.249Z,14.15
2022-11-04T11:47:25.675Z,14.55
2022-11-04T11:50:04.611Z,17.35
2022-11-04T11:52:38.475Z,11.52
2022-11-04T11:55:27.331Z,13.55
2022-11-04T12:01:34.186Z,11.63
2022-11-04T12:10:01.100Z,27.25
2022-11-04T12:12:52.786Z,13.95
2022-11-04T12:15:34.882Z,14.85
2022-11-04T12:18:40.678Z,17.33
2022-11-04T12:21:16.024Z,17.38
2022-11-04T12:23:51.025Z,17.15
2022-11-04T12:26:42.576Z,16.17
2022-11-04T12:29:29.845Z,13.35
2022-11-04T12:32:17.742Z,13.13
2022-11-04T12:35:16.878Z,15.27
2022-11-04T12:38:20.632Z,16.60
2022-11-04T12:41:27.733Z,29.15
2022-11-04T12:46:27.816Z,14.73
2022-11-04T12:49:13.704Z,12.77
2022-11-04T12:52:04.563Z,13.38
2022-11-04T12:54:54.404Z,13.48
2022-11-04T12:57:43.265Z,17.77
2022-11-04T13:00:16.822Z,13.02
2022-11-04T13:02:50.339Z,12.48
2022-11-04T13:05:25.781Z,14.60
2022-11-04T13:08:13.769Z,13.43
2022-11-04T13:10:58.696Z,11.38
2022-11-04T13:13:43.799Z,12.80
2022-11-04T13:16:12.024Z,12.55
2022-11-04T13:18:41.115Z,15.93
2022-11-04T13:21:14.147Z,12.38
2022-11-04T13:24:05.017Z,14.20
2022-11-04T13:26:32.352Z,13.15
2022-11-04T13:29:12.220Z,17.60
2022-11-04T13:31:45.174Z,16.92
2022-11-04T13:34:17.940Z,14.48
2022-11-04T13:37:08.714Z,14.65
2022-11-04T13:39:41.902Z,17.13
2022-11-04T13:42:17.795Z,18.17
2022-11-04T13:47:24.828Z,18.70
2022-11-04T13:49:55.379Z,18.40
2022-11-04T13:52:30.192Z,18.02
2022-11-04T13:55:04.254Z,17.23
2022-11-04T13:57:42.705Z,14.57
2022-11-04T14:00:15.195Z,21.83
2022-11-04T14:02:46.087Z,16.15
2022-11-04T14:05:28.331Z,13.43
2022-11-04T14:08:01.372Z,16.42
2022-11-04T14:10:50.067Z,15.15
2022-11-04T14:13:33.547Z,16.52
2022-11-04T14:16:34.854Z,16.75
2022-11-04T14:19:42.253Z,15.40
2022-11-04T14:22:15.684Z,20.40
2022-11-04T14:24:42.950Z,16.23
2022-11-04T14:27:41.261Z,15.95
2022-11-04T14:30:30.858Z,17.88
2022-11-04T14:33:01.307Z,18.98
2022-11-04T14:35:30.018Z,16.38
2022-11-04T14:37:59.154Z,15.10
2022-11-04T14:40:46.208Z,16.52
2022-11-04T14:43:35.137Z,15.25
2022-11-04T14:46:02.657Z,14.70
2022-11-04T14:48:30.946Z,17.35
2022-11-04T14:50:58.469Z,17.08
2022-11-04T14:53:38.151Z,15.52
2022-11-04T14:56:23.965Z,16.85
2022-11-04T14:58:55.857Z,21.42
2022-11-04T15:01:26.528Z,20.52
2022-11-04T15:04:13.013Z,17.02
2022-11-04T15:06:54.437Z,18.05
2022-11-04T15:09:25.397Z,17.75
2022-11-04T15:12:32.057Z,17.17
2022-11-04T15:15:00.659Z,20.23
2022-11-04T15:17:31.294Z,17.10
2022-11-04T15:20:00.823Z,18.13
2022-11-04T15:22:29.299Z,21.50
2022-11-04T15:24:59.527Z,16.77
2022-11-04T15:27:29.836Z,20.67
2022-11-04T15:30:05.353Z,27.00
2022-11-04T15:32:32.241Z,25.42
2022-11-04T15:34:59.613Z,18.67
2022-11-04T15:37:28.895Z,19.40
2022-11-04T15:39:58.138Z,18.02
2022-11-04T15:42:37.038Z,20.13
2022-11-04T15:45:22.388Z,19.08
2022-11-04T15:47:50.808Z,18.25
2022-11-04T15:50:25.920Z,21.33
2022-11-04T15:52:55.761Z,15.95
2022-11-04T15:55:25.412Z,20.05
2022-11-04T15:57:53.180Z,15.65
2022-11-04T16:00:30.444Z,19.48
2022-11-04T16:02:59.630Z,18.55
2022-11-04T16:05:37.115Z,16.30
2022-11-04T16:08:27.623Z,17.48
2022-11-04T16:11:15.393Z,17.58
2022-11-04T16:13:42.923Z,22.23
2022-11-04T16:16:24.789Z,14.25
2022-11-04T16:18:59.383Z,16.58
2022-11-04T16:21:31.724Z,16.30
2022-11-04T16:24:06.207Z,18.50
2022-11-04T16:26:39.323Z,18.55
2022-11-04T16:29:09.801Z,20.60
2022-11-04T16:31:37.625Z,16.38
2022-11-04T16:34:06.016Z,15.10
2022-11-04T16:36:35.918Z,20.73
2022-11-04T16:39:08.135Z,19.00
2022-11-04T16:41:38.544Z,15.32
2022-11-04T16:44:14.801Z,19.73
2022-11-04T16:46:41.712Z,22.00
2022-11-04T16:49:10.800Z,15.50
2022-11-04T16:51:37.629Z,17.88
2022-11-04T16:54:04.528Z,20.27
2022-11-04T16:56:33.309Z,19.40
2022-11-04T16:59:00.232Z,28.10
2022-11-04T17:01:27.746Z,32.50
2022-11-04T17:03:54.641Z,32.50
2022-11-04T17:06:21.387Z,41.42
2022-11-04T17:08:48.200Z,26.30
2022-11-04T17:11:15.123Z,24.85
2022-11-04T17:13:42.144Z,25.10
2022-11-04T17:16:13.252Z,31.00
2022-11-04T17:18:40.034Z,30.80
2022-11-04T17:21:09.607Z,32.30
2022-11-04T17:23:36.766Z,28.80
2022-11-04T17:26:03.802Z,29.45
2022-11-04T17:28:32.975Z,27.00
2022-11-04T17:31:01.484Z,22.48
2022-11-04T17:33:28.231Z,22.10
2022-11-04T17:35:55.178Z,27.45
2022-11-04T17:38:22.238Z,24.70
2022-11-04T17:41:07.742Z,23.52
2022-11-04T17:43:53.192Z,25.93
2022-11-04T17:46:35.354Z,23.33
2022-11-04T17:49:13.292Z,21.90
2022-11-04T17:51:41.596Z,23.63
2022-11-04T17:54:09.430Z,19.17
2022-11-04T17:56:37.235Z,17.48
2022-11-04T17:59:04.754Z,23.35
2022-11-04T18:01:33.454Z,17.45
2022-11-04T18:04:00.372Z,22.80
2022-11-04T18:06:30.914Z,19.98
2022-11-04T18:08:59.133Z,20.42
2022-11-04T18:11:46.636Z,18.52
2022-11-04T18:14:16.811Z,21.65
2022-11-04T18:16:46.305Z,20.42
2022-11-04T18:19:14.084Z,20.30
2022-11-04T18:21:40.919Z,22.35
2022-11-04T18:24:08.115Z,20.73
2022-11-04T18:26:35.182Z,19.48
2022-11-04T18:29:03.544Z,21.90
2022-11-04T18:31:33.199Z,20.83
2022-11-04T18:34:01.950Z,21.58
2022-11-04T18:36:30.300Z,20.15
2022-11-04T18:38:57.365Z,25.52
2022-11-04T18:41:24.256Z,20.65
2022-11-04T18:43:51.013Z,21.70
2022-11-04T18:46:17.972Z,21.85
2022-11-04T18:48:49.329Z,18.75
2022-11-04T18:51:19.195Z,20.45
2022-11-04T18:53:46.800Z,20.50
2022-11-04T18:56:16.859Z,20.85
2022-11-04T18:58:46.866Z,19.67
2022-11-04T19:01:22.503Z,23.20
2022-11-04T19:03:50.875Z,19.23
2022-11-04T19:06:20.296Z,21.50
2022-11-04T19:08:48.136Z,25.42
2022-11-04T19:11:20.989Z,30.20
2022-11-04T19:13:52.532Z,22.88
2022-11-04T19:16:20.265Z,19.88
2022-11-04T19:18:49.776Z,20.52
2022-11-04T19:21:24.308Z,19.33
2022-11-04T19:23:51.363Z,20.38
2022-11-04T19:26:24.450Z,20.45
2022-11-04T19:28:51.934Z,23.90
2022-11-04T19:31:27.153Z,23.77
2022-11-04T19:33:55.115Z,23.50
2022-11-04T19:36:23.279Z,24.42
2022-11-04T19:38:55.121Z,22.15
2022-11-04T19:41:41.759Z,23.30
2022-11-04T19:44:15.852Z,22.58
2022-11-04T19:46:43.113Z,22.55
2022-11-04T19:49:10.695Z,23.30
2022-11-04T19:51:37.815Z,20.45
2022-11-04T19:54:05.406Z,22.58
2022-11-04T19:56:33.730Z,25.98
2022-11-04T19:59:05.859Z,21.92
2022-11-04T20:01:34.492Z,25.85
2022-11-04T20:04:02.968Z,23.77
2022-11-04T20:06:32.275Z,25.70
2022-11-04T20:09:05.277Z,23.30
2022-11-04T20:11:33.483Z,23.50
2022-11-04T20:14:06.514Z,22.92
2022-11-04T20:16:39.524Z,26.00
2022-11-04T20:19:06.921Z,22.58
2022-11-04T20:21:36.086Z,28.63
2022-11-04T20:24:05.961Z,26.05
2022-11-04T20:26:36.984Z,27.48
2022-11-04T20:29:04.443Z,27.33
2022-11-04T20:31:34.087Z,25.73
2022-11-04T20:34:05.013Z,29.85
2022-11-04T20:36:33.186Z,30.25
2022-11-04T20:39:06.249Z,30.48
2022-11-04T20:41:33.619Z,32.53
2022-11-04T20:44:00.406Z,28.50
2022-11-04T20:46:31.622Z,40.33
2022-11-04T20:48:59.172Z,38.22
2022-11-04T20:51:32.307Z,32.58
2022-11-04T20:54:02.003Z,29.50
2022-11-04T20:56:32.099Z,29.42
2022-11-04T20:59:00.320Z,24.40
2022-11-04T21:01:34.142Z,29.95
2022-11-04T21:04:03.679Z,26.40
2022-11-04T21:06:31.241Z,32.60
2022-11-04T21:08:59.279Z,28.52
2022-11-04T21:11:31.935Z,34.92
2022-11-04T21:13:59.693Z,28.33
2022-11-04T21:16:26.845Z,26.65
2022-11-04T21:18:54.518Z,31.30
2022-11-04T21:21:21.404Z,30.83
2022-11-04T21:23:48.715Z,27.77
2022-11-04T21:26:27.923Z,34.15
2022-11-04T21:28:56.382Z,33.10
2022-11-04T21:31:24.109Z,30.58
2022-11-04T21:33:52.062Z,29.58
2022-11-04T21:36:20.081Z,28.52
2022-11-04T21:38:47.251Z,26.63
2022-11-04T21:41:28.121Z,25.77
2022-11-04T21:44:03.053Z,29.90
2022-11-04T21:46:31.982Z,27.42
2022-11-04T21:48:59.440Z,28.15
2022-11-04T21:51:29.509Z,31.15
2022-11-04T21:53:57.127Z,32.22
2022-11-04T21:56:26.096Z,30.42
2022-11-04T21:58:53.985Z,27.38
2022-11-04T22:01:29.953Z,33.00
2022-11-04T22:03:59.831Z,38.47
2022-11-04T22:06:34.530Z,34.35
2022-11-04T22:09:02.457Z,35.28
2022-11-04T22:11:31.892Z,33.60
2022-11-04T22:14:04.656Z,39.85
2022-11-04T22:16:33.940Z,38.75
2022-11-04T22:19:03.540Z,37.90
2022-11-04T22:21:31.486Z,37.90
2022-11-04T22:23:59.468Z,37.22
2022-11-04T22:26:28.596Z,37.05
2022-11-04T22:28:56.456Z,39.45
2022-11-04T22:31:26.234Z,40.13
2022-11-04T22:33:53.988Z,36.63
2022-11-04T22:36:20.994Z,35.17
2022-11-04T22:38:47.770Z,38.72
2022-11-04T22:41:18.177Z,39.60
2022-11-04T22:43:45.004Z,35.15
2022-11-04T22:46:14.939Z,40.08
2022-11-04T22:48:41.718Z,37.88
2022-11-04T22:51:09.878Z,40.00
2022-11-04T22:53:37.672Z,37.17
2022-11-04T22:56:06.528Z,32.55
2022-11-04T22:58:33.499Z,38.15
2022-11-04T23:01:03.862Z,39.55
2022-11-04T23:03:30.887Z,34.28
2022-11-04T23:05:59.425Z,33.33
2022-11-04T23:08:28.838Z,36.30
2022-11-04T23:11:19.671Z,38.05
2022-11-04T23:14:19.753Z,34.63
2022-11-04T23:17:08.048Z,35.08
2022-11-04T23:19:35.031Z,35.45
2022-11-04T23:22:20.703Z,31.63
2022-11-04T23:25:06.120Z,34.80
2022-11-04T23:28:09.469Z,34.57
2022-11-04T23:30:42.800Z,31.77
2022-11-04T23:33:12.380Z,51.03
2022-11-04T23:36:04.122Z,373.23
2022-11-04T23:38:31.925Z,268.38
2022-11-04T23:41:19.905Z,49.50
2022-11-04T23:43:47.196Z,75.68
2022-11-04T23:46:35.415Z,46.38
2022-11-04T23:49:23.656Z,40.45
2022-11-04T23:52:08.869Z,42.27
2022-11-04T23:54:54.433Z,41.60
2022-11-04T23:57:40.009Z,37.43
